createdAt,value
2022-10-30T00:04:22.578Z,98529.69
2022-10-30T00:07:01.967Z,98530.66
2022-10-30T00:09:29.878Z,98519.22
2022-10-30T00:11:57.377Z,98517.41
2022-10-30T00:14:24.889Z,98514.66
2022-10-30T00:16:52.774Z,98510.22
2022-10-30T00:19:20.144Z,98516.13
2022-10-30T00:21:47.710Z,98509.25
2022-10-30T00:24:15.913Z,98508.13
2022-10-30T00:26:56.091Z,98511.28
2022-10-30T00:29:25.403Z,98497.34
2022-10-30T00:31:53.687Z,98502.31
2022-10-30T00:34:21.267Z,98499.53
2022-10-30T00:36:51.139Z,98492.03
2022-10-30T00:39:18.862Z,98495.19
2022-10-30T00:41:46.423Z,98482.09
2022-10-30T00:44:34.669Z,98482.09
2022-10-30T00:47:06.598Z,98484.56
2022-10-30T00:49:36.324Z,98482.91
2022-10-30T00:52:18.264Z,98475.84
2022-10-30T00:54:48.659Z,98479.00
2022-10-30T00:57:16.357Z,98472.62
2022-10-30T00:59:58.136Z,98477.59
2022-10-30T01:02:38.240Z,98474.13
2022-10-30T01:05:06.487Z,98474.78
2022-10-30T01:07:46.254Z,98468.59
2022-10-30T01:10:14.479Z,98466.56
2022-10-30T01:12:44.263Z,98464.69
2022-10-30T01:15:12.713Z,98450.41
2022-10-30T01:18:19.194Z,98449.03
2022-10-30T01:20:47.172Z,98440.09
2022-10-30T01:23:31.380Z,98438.75
2022-10-30T01:26:17.848Z,98433.44
2022-10-30T01:29:03.258Z,98433.28
2022-10-30T01:31:41.642Z,98424.88
2022-10-30T01:34:11.946Z,98432.97
2022-10-30T01:36:45.606Z,98431.75
2022-10-30T01:39:14.679Z,98420.38
2022-10-30T01:41:42.627Z,98423.94
2022-10-30T01:44:14.903Z,98430.84
2022-10-30T01:46:43.698Z,98430.00
2022-10-30T01:49:37.605Z,98435.19
2022-10-30T01:52:11.770Z,98431.31
2022-10-30T01:54:43.172Z,98431.63
2022-10-30T01:57:48.998Z,98430.50
2022-10-30T02:00:17.565Z,98430.72
2022-10-30T02:02:46.789Z,98427.97
2022-10-30T02:05:20.490Z,98419.09
2022-10-30T02:08:00.785Z,98418.28
2022-10-30T02:10:30.331Z,98418.00
2022-10-30T02:12:59.186Z,98413.38
2022-10-30T02:15:38.746Z,98422.19
2022-10-30T02:18:06.889Z,98416.94
2022-10-30T02:20:34.723Z,98413.38
2022-10-30T02:23:02.871Z,98411.69
2022-10-30T02:25:31.681Z,98416.13
2022-10-30T02:27:59.544Z,98412.38
2022-10-30T02:33:14.301Z,98408.72
2022-10-30T02:35:41.838Z,98405.50
2022-10-30T02:38:09.344Z,98410.16
2022-10-30T02:40:37.310Z,98405.03
2022-10-30T02:43:16.638Z,98402.66
2022-10-30T02:45:58.527Z,98407.59
2022-10-30T02:48:30.467Z,98406.47
2022-10-30T02:51:01.946Z,98410.72
2022-10-30T02:53:30.030Z,98404.41
2022-10-30T02:56:05.689Z,98408.50
2022-10-30T02:58:33.392Z,98400.31
2022-10-30T03:03:53.656Z,98393.00
2022-10-30T03:06:36.192Z,98396.97
2022-10-30T03:09:03.824Z,98391.84
2022-10-30T03:11:45.713Z,98395.69
2022-10-30T03:14:13.220Z,98389.62
2022-10-30T03:16:41.174Z,98385.13
2022-10-30T03:19:09.091Z,98388.91
2022-10-30T03:21:36.689Z,98389.44
2022-10-30T03:24:05.685Z,98384.72
2022-10-30T03:26:36.708Z,98384.41
2022-10-30T03:29:04.776Z,98384.94
2022-10-30T03:31:32.958Z,98383.13
2022-10-30T03:34:01.432Z,98385.06
2022-10-30T03:36:29.270Z,98383.50
2022-10-30T03:38:56.938Z,98386.41
2022-10-30T03:41:36.996Z,98381.16
2022-10-30T03:44:05.096Z,98379.06
2022-10-30T03:46:32.700Z,98380.19
2022-10-30T03:51:47.375Z,98374.56
2022-10-30T03:54:26.864Z,98375.97
2022-10-30T03:57:06.518Z,98372.00
2022-10-30T03:59:47.151Z,98378.31
2022-10-30T04:02:17.074Z,98374.28
2022-10-30T04:04:46.080Z,98371.28
2022-10-30T04:07:29.071Z,98379.06
2022-10-30T04:10:09.288Z,98372.03
2022-10-30T04:12:49.460Z,98375.06
2022-10-30T04:15:20.789Z,98374.97
2022-10-30T04:17:48.955Z,98378.59
2022-10-30T04:20:19.699Z,98380.00
2022-10-30T04:25:36.928Z,98381.22
2022-10-30T04:28:19.671Z,98379.03
2022-10-30T04:30:47.974Z,98386.00
2022-10-30T04:33:16.236Z,98397.38
2022-10-30T04:35:44.086Z,98387.84
2022-10-30T04:38:25.823Z,98398.00
2022-10-30T04:40:53.448Z,98403.91
2022-10-30T04:43:21.468Z,98398.41
2022-10-30T04:45:49.234Z,98403.91
2022-10-30T04:48:31.798Z,98406.53
2022-10-30T04:50:59.914Z,98399.66
2022-10-30T04:53:28.832Z,98409.16
2022-10-30T04:55:56.910Z,98413.09
2022-10-30T04:58:24.838Z,98398.28
2022-10-30T05:00:53.031Z,98396.72
2022-10-30T05:03:25.010Z,98395.94
2022-10-30T05:06:16.212Z,98411.50
2022-10-30T05:08:43.758Z,98404.56
2022-10-30T05:11:25.992Z,98414.59
2022-10-30T05:13:53.480Z,98404.09
2022-10-30T05:16:33.210Z,98410.50
2022-10-30T05:19:01.200Z,98410.44
2022-10-30T05:21:29.486Z,98406.44
2022-10-30T05:24:08.789Z,98396.41
2022-10-30T05:26:37.673Z,98407.22
2022-10-30T05:29:07.407Z,98413.81
2022-10-30T05:39:54.809Z,98406.41
2022-10-30T05:42:23.702Z,98410.03
2022-10-30T05:45:01.405Z,98417.53
2022-10-30T05:47:32.057Z,98414.84
2022-10-30T05:49:59.645Z,98409.69
2022-10-30T05:52:27.300Z,98407.44
2022-10-30T05:54:55.278Z,98408.28
2022-10-30T05:57:25.425Z,98416.37
2022-10-30T05:59:53.684Z,98420.69
2022-10-30T06:02:22.216Z,98424.16
2022-10-30T06:05:03.323Z,98426.34
2022-10-30T06:07:43.017Z,98417.34
2022-10-30T06:10:13.334Z,98422.72
2022-10-30T06:12:41.118Z,98426.78
2022-10-30T06:15:09.436Z,98422.06
2022-10-30T06:17:37.765Z,98422.50
2022-10-30T06:20:06.604Z,98416.50
2022-10-30T06:22:35.974Z,98416.41
2022-10-30T06:25:04.130Z,98423.59
2022-10-30T06:27:36.310Z,98426.62
2022-10-30T06:30:05.372Z,98425.38
2022-10-30T06:32:33.814Z,98425.06
2022-10-30T06:35:01.522Z,98419.12
2022-10-30T06:37:30.555Z,98422.22
2022-10-30T06:39:59.309Z,98422.44
2022-10-30T06:42:30.235Z,98427.91
2022-10-30T06:45:10.086Z,98426.91
2022-10-30T06:50:25.597Z,98424.97
2022-10-30T06:52:57.986Z,98421.00
2022-10-30T06:55:27.193Z,98420.12
2022-10-30T06:57:58.961Z,98425.59
2022-10-30T07:00:28.314Z,98427.53
2022-10-30T07:03:01.798Z,98432.25
2022-10-30T07:05:30.845Z,98430.28
2022-10-30T07:07:58.559Z,98434.19
2022-10-30T07:10:26.096Z,98437.03
2022-10-30T07:12:57.455Z,98436.88
2022-10-30T07:18:18.549Z,98435.84
2022-10-30T07:20:50.612Z,98434.28
2022-10-30T07:23:18.570Z,98435.09
2022-10-30T07:26:03.354Z,98434.66
2022-10-30T07:28:32.205Z,98433.22
2022-10-30T07:31:01.751Z,98428.72
2022-10-30T07:36:15.385Z,98431.78
2022-10-30T07:38:44.657Z,98426.38
2022-10-30T07:41:27.276Z,98427.97
2022-10-30T07:43:55.266Z,98425.16
2022-10-30T07:46:23.639Z,98435.19
2022-10-30T07:48:59.751Z,98419.19
2022-10-30T07:51:28.083Z,98421.03
2022-10-30T07:54:07.996Z,98420.16
2022-10-30T07:56:36.338Z,98420.72
2022-10-30T07:59:18.115Z,98427.16
2022-10-30T08:01:46.377Z,98418.44
2022-10-30T08:04:16.124Z,98421.31
2022-10-30T08:06:43.667Z,98417.13
2022-10-30T08:09:11.398Z,98410.75
2022-10-30T08:11:40.137Z,98420.56
2022-10-30T08:14:07.675Z,98417.94
2022-10-30T08:16:35.217Z,98405.25
2022-10-30T08:19:03.385Z,98411.53
2022-10-30T08:21:43.108Z,98406.88
2022-10-30T08:24:11.241Z,98406.66
2022-10-30T08:26:39.481Z,98394.34
2022-10-30T08:29:08.525Z,98397.38
2022-10-30T08:31:36.524Z,98401.16
2022-10-30T08:34:10.615Z,98404.09
2022-10-30T08:36:51.161Z,98402.25
2022-10-30T08:39:34.414Z,98399.34
2022-10-30T08:42:04.220Z,98393.28
2022-10-30T08:44:33.369Z,98417.22
2022-10-30T08:47:16.457Z,98419.06
2022-10-30T08:49:45.793Z,98419.75
2022-10-30T08:52:14.115Z,98425.44
2022-10-30T08:54:41.690Z,98422.16
2022-10-30T08:57:09.197Z,98420.28
2022-10-30T08:59:39.192Z,98422.25
2022-10-30T09:02:13.428Z,98429.59
2022-10-30T09:04:45.213Z,98424.63
2022-10-30T09:07:15.730Z,98440.94
2022-10-30T09:09:44.877Z,98427.66
2022-10-30T09:12:12.407Z,98433.22
2022-10-30T09:14:40.341Z,98421.22
2022-10-30T09:17:09.106Z,98414.31
2022-10-30T09:19:37.197Z,98420.38
2022-10-30T09:22:05.754Z,98412.88
2022-10-30T09:24:34.352Z,98414.09
2022-10-30T09:27:06.908Z,98416.91
2022-10-30T09:29:35.957Z,98402.03
2022-10-30T09:32:05.394Z,98412.38
2022-10-30T09:37:31.244Z,98401.41
2022-10-30T09:39:59.421Z,98406.22
2022-10-30T09:45:34.501Z,98398.09
2022-10-30T09:48:36.935Z,98394.28
2022-10-30T09:51:29.413Z,98382.41
2022-10-30T09:54:19.804Z,98392.53
2022-10-30T10:03:01.701Z,98385.22
2022-10-30T10:05:59.386Z,98394.13
2022-10-30T10:08:39.458Z,98378.97
2022-10-30T10:11:17.198Z,98373.31
2022-10-30T10:14:03.373Z,98387.94
2022-10-30T10:16:33.764Z,98383.09
2022-10-30T10:19:08.106Z,98381.28
2022-10-30T10:21:40.383Z,98376.50
2022-10-30T10:24:21.270Z,98379.91
2022-10-30T10:26:50.756Z,98382.78
2022-10-30T10:29:18.203Z,98383.53
2022-10-30T10:32:14.281Z,98385.03
2022-10-30T10:34:58.007Z,98375.81
2022-10-30T10:37:43.738Z,98371.72
2022-10-30T10:40:42.663Z,98377.75
2022-10-30T10:43:15.338Z,98377.59
2022-10-30T10:45:55.106Z,98373.53
2022-10-30T10:48:37.538Z,98374.44
2022-10-30T10:51:07.180Z,98369.69
2022-10-30T10:53:34.635Z,98364.44
2022-10-30T10:56:02.166Z,98358.94
2022-10-30T10:58:50.473Z,98359.00
2022-10-30T11:01:21.839Z,98355.13
2022-10-30T11:03:49.770Z,98354.87
2022-10-30T11:06:21.444Z,98349.28
2022-10-30T11:08:49.700Z,98347.81
2022-10-30T11:11:17.592Z,98346.81
2022-10-30T11:13:58.112Z,98345.13
2022-10-30T11:16:32.042Z,98339.19
2022-10-30T11:19:03.999Z,98344.91
2022-10-30T11:21:35.102Z,98363.00
2022-10-30T11:24:02.611Z,98337.56
2022-10-30T11:26:44.119Z,98320.47
2022-10-30T11:29:14.075Z,98316.41
2022-10-30T11:31:45.278Z,98330.41
2022-10-30T11:34:14.150Z,98329.94
2022-10-30T11:36:54.066Z,98324.97
2022-10-30T11:39:35.483Z,98329.97
2022-10-30T11:42:07.773Z,98331.53
2022-10-30T11:50:17.920Z,98327.06
2022-10-30T11:52:48.344Z,98323.59
2022-10-30T11:55:37.076Z,98330.31
2022-10-30T11:58:05.615Z,98349.59
2022-10-30T12:00:35.063Z,98358.16
2022-10-30T12:03:03.817Z,98383.31
2022-10-30T12:05:34.258Z,98391.25
2022-10-30T12:08:08.024Z,98397.12
2022-10-30T12:10:42.682Z,98416.13
2022-10-30T12:13:15.709Z,98442.50
2022-10-30T12:15:45.191Z,98430.44
2022-10-30T12:18:32.154Z,98436.84
2022-10-30T12:21:00.328Z,98466.88
2022-10-30T12:23:28.882Z,98452.22
2022-10-30T12:25:58.360Z,98425.19
2022-10-30T12:28:30.891Z,98427.62
2022-10-30T12:31:02.482Z,98431.66
2022-10-30T12:33:50.793Z,98436.13
2022-10-30T12:36:23.432Z,98431.37
2022-10-30T12:38:57.343Z,98423.94
2022-10-30T12:44:20.209Z,98425.22
2022-10-30T12:46:47.619Z,98422.72
2022-10-30T12:49:22.340Z,98424.00
2022-10-30T12:54:47.902Z,98427.78
2022-10-30T12:57:18.032Z,98430.37
2022-10-30T12:59:51.730Z,98435.69
2022-10-30T13:02:37.001Z,98434.50
2022-10-30T13:05:17.308Z,98442.62
2022-10-30T13:07:47.895Z,98443.31
2022-10-30T13:10:15.434Z,98444.41
2022-10-30T13:12:45.189Z,98443.50
2022-10-30T13:15:34.190Z,98440.72
2022-10-30T13:18:09.761Z,98443.09
2022-10-30T13:20:38.851Z,98433.66
2022-10-30T13:23:32.311Z,98439.25
2022-10-30T13:26:19.758Z,98434.31
2022-10-30T13:28:47.202Z,98440.50
2022-10-30T13:31:30.596Z,98436.72
2022-10-30T13:34:02.855Z,98436.59
2022-10-30T13:36:31.026Z,98435.09
2022-10-30T13:42:12.205Z,98431.66
2022-10-30T13:47:56.826Z,98501.63
2022-10-30T13:53:27.404Z,98507.66
2022-10-30T13:55:59.144Z,98508.13
2022-10-30T13:58:32.813Z,98505.03
2022-10-30T14:01:17.084Z,98500.25
2022-10-30T14:03:45.131Z,98500.00
2022-10-30T14:09:13.498Z,98514.69
2022-10-30T14:11:41.024Z,98521.78
2022-10-30T14:14:24.526Z,98557.00
2022-10-30T14:17:08.932Z,98543.09
2022-10-30T14:19:55.383Z,98546.19
2022-10-30T16:26:36.742Z,98633.44
2022-10-30T16:29:14.097Z,98634.09
2022-10-30T16:31:44.126Z,98633.81
2022-10-30T16:34:16.671Z,98633.91
2022-10-30T16:36:44.524Z,98635.69
2022-10-30T16:39:17.033Z,98638.91
2022-10-30T16:41:45.130Z,98634.22
2022-10-30T16:44:13.279Z,98639.34
2022-10-30T16:46:44.343Z,98643.69
2022-10-30T16:49:24.188Z,98643.41
2022-10-30T16:52:08.706Z,98642.50
2022-10-30T16:54:38.606Z,98640.25
2022-10-30T16:57:38.956Z,98646.91
2022-10-30T17:00:18.872Z,98643.38
2022-10-30T17:02:48.377Z,98644.72
2022-10-30T17:05:34.629Z,98642.53
2022-10-30T17:08:21.542Z,98639.28
2022-10-30T17:11:03.866Z,98643.13
2022-10-30T17:13:38.913Z,98638.94
2022-10-30T17:19:24.300Z,98640.34
2022-10-30T17:21:53.453Z,98641.56
2022-10-30T17:24:24.004Z,98645.72
2022-10-30T17:27:11.535Z,98645.47
2022-10-30T17:29:54.466Z,98649.41
2022-10-30T17:32:36.429Z,98648.91
2022-10-30T17:35:19.742Z,98643.91
2022-10-30T17:37:47.575Z,98653.06
2022-10-30T17:40:15.607Z,98645.88
2022-10-30T17:42:43.213Z,98652.03
2022-10-30T17:45:13.996Z,98648.19
2022-10-30T17:47:42.370Z,98653.09
2022-10-30T17:50:10.082Z,98656.78
2022-10-30T17:52:49.531Z,98658.66
2022-10-30T17:55:26.124Z,98663.06
2022-10-30T17:57:53.622Z,98652.09
2022-10-30T18:00:21.732Z,98646.09
2022-10-30T18:02:49.779Z,98646.88
2022-10-30T18:05:31.338Z,98637.63
2022-10-30T18:07:59.320Z,98632.59
2022-10-30T18:10:27.336Z,98630.09
2022-10-30T18:12:55.248Z,98634.50
2022-10-30T18:15:38.440Z,98629.19
2022-10-30T18:18:06.411Z,98634.28
2022-10-30T18:20:35.051Z,98629.50
2022-10-30T18:23:03.099Z,98632.03
2022-10-30T18:25:32.213Z,98627.78
2022-10-30T18:30:59.562Z,98630.50
2022-10-30T18:33:39.487Z,98634.72
2022-10-30T18:36:29.327Z,98631.34
2022-10-30T18:39:10.609Z,98634.28
2022-10-30T18:41:52.185Z,98627.97
2022-10-30T18:44:20.582Z,98627.34
2022-10-30T18:46:48.075Z,98633.97
2022-10-30T18:49:15.692Z,98627.63
2022-10-30T18:51:43.760Z,98631.84
2022-10-30T18:54:15.390Z,98631.75
2022-10-30T18:56:43.483Z,98629.69
2022-10-30T18:59:11.033Z,98633.34
2022-10-30T19:01:50.591Z,98628.53
2022-10-30T19:04:22.168Z,98631.94
2022-10-30T19:06:50.243Z,98631.94
2022-10-30T19:12:02.940Z,98629.44
2022-10-30T19:14:30.796Z,98631.25
2022-10-30T19:16:58.357Z,98636.53
2022-10-30T19:19:25.832Z,98636.44
2022-10-30T19:21:53.831Z,98640.97
2022-10-30T19:24:33.372Z,98632.59
2022-10-30T19:27:01.357Z,98641.41
2022-10-30T19:29:41.064Z,98634.63
2022-10-30T19:34:53.882Z,98632.28
2022-10-30T19:37:21.818Z,98632.69
2022-10-30T19:39:49.594Z,98635.06
2022-10-30T19:42:29.367Z,98628.50
2022-10-30T19:44:57.268Z,98630.75
2022-10-30T19:47:25.274Z,98637.22
2022-10-30T19:49:53.846Z,98631.44
2022-10-30T19:52:29.228Z,98634.06
2022-10-30T19:54:58.138Z,98634.63
2022-10-30T19:57:26.652Z,98631.91
2022-10-30T19:59:54.192Z,98631.06
2022-10-30T20:05:06.891Z,98622.59
2022-10-30T20:07:34.664Z,98631.38
2022-10-30T20:10:02.200Z,98628.03
2022-10-30T20:12:30.162Z,98634.81
2022-10-30T20:14:57.799Z,98630.19
2022-10-30T20:17:25.315Z,98629.59
2022-10-30T20:19:53.208Z,98629.37
2022-10-30T20:22:25.643Z,98632.56
2022-10-30T20:24:56.230Z,98628.47
2022-10-30T20:27:33.093Z,98622.37
2022-10-30T20:30:13.225Z,98627.72
2022-10-30T20:32:40.976Z,98621.09
2022-10-30T20:35:11.361Z,98627.69
2022-10-30T20:37:39.412Z,98625.97
2022-10-30T20:40:23.371Z,98618.88
2022-10-30T20:42:51.505Z,98626.16
2022-10-30T20:45:21.047Z,98621.00
2022-10-30T20:47:48.916Z,98623.00
2022-10-30T20:50:17.379Z,98621.31
2022-10-30T20:52:57.112Z,98626.22
2022-10-30T20:55:25.272Z,98618.62
2022-10-30T20:57:52.831Z,98628.78
2022-10-30T21:00:20.329Z,98616.22
2022-10-30T21:02:48.231Z,98616.47
2022-10-30T21:05:43.397Z,98620.78
2022-10-30T21:08:13.085Z,98616.38
2022-10-30T21:10:40.952Z,98615.53
2022-10-30T21:13:20.874Z,98614.78
2022-10-30T21:15:48.930Z,98598.37
2022-10-30T21:18:28.785Z,98610.41
2022-10-30T21:21:03.944Z,98611.00
2022-10-30T21:23:31.549Z,98612.06
2022-10-30T21:26:03.377Z,98620.31
2022-10-30T21:28:30.856Z,98621.31
2022-10-30T21:31:14.855Z,98617.97
2022-10-30T21:33:42.438Z,98612.06
2022-10-30T21:36:12.733Z,98612.97
2022-10-30T21:38:44.849Z,98608.75
2022-10-30T21:41:14.043Z,98611.72
2022-10-30T21:43:41.595Z,98604.81
2022-10-30T21:46:10.232Z,98612.53
2022-10-30T21:48:50.452Z,98609.44
2022-10-30T21:51:19.150Z,98606.59
2022-10-30T21:53:47.691Z,98606.81
2022-10-30T21:56:19.713Z,98607.81
2022-10-30T21:58:47.973Z,98613.13
2022-10-30T22:01:27.776Z,98612.22
2022-10-30T22:03:56.101Z,98616.69
2022-10-30T22:06:35.642Z,98610.41
2022-10-30T22:09:03.604Z,98614.47
2022-10-30T22:11:31.105Z,98611.75
2022-10-30T22:13:59.762Z,98613.72
2022-10-30T22:19:13.462Z,98617.66
2022-10-30T22:24:28.607Z,98613.87
2022-10-30T22:27:08.776Z,98611.53
2022-10-30T22:29:36.321Z,98622.22
2022-10-30T22:32:04.267Z,98619.72
2022-10-30T22:34:43.925Z,98620.47
2022-10-30T22:37:11.937Z,98619.34
2022-10-30T22:39:39.452Z,98619.78
2022-10-30T22:42:06.935Z,98615.09
2022-10-30T22:44:35.031Z,98609.56
2022-10-30T22:47:02.882Z,98616.16
2022-10-30T22:49:30.566Z,98610.41
2022-10-30T22:51:58.779Z,98611.97
2022-10-30T22:54:26.569Z,98603.84
2022-10-30T22:59:40.724Z,98597.03
2022-10-30T23:02:08.346Z,98602.19
2022-10-30T23:04:35.977Z,98601.00
2022-10-30T23:07:07.114Z,98598.37
2022-10-30T23:09:34.753Z,98597.66
2022-10-30T23:12:02.251Z,98605.09
2022-10-30T23:14:30.233Z,98604.72
2022-10-30T23:16:57.827Z,98600.94
2022-10-30T23:19:26.238Z,98600.16
2022-10-30T23:21:57.900Z,98605.16
2022-10-30T23:24:26.200Z,98605.59
2022-10-30T23:26:54.118Z,98610.06
2022-10-30T23:29:21.626Z,98597.87
2022-10-30T23:31:49.149Z,98603.94
2022-10-30T23:34:17.554Z,98595.00
2022-10-30T23:36:57.715Z,98585.97
2022-10-30T23:39:29.638Z,98588.88
2022-10-30T23:41:57.375Z,98599.25
2022-10-30T23:44:25.018Z,98598.87
2022-10-30T23:46:53.209Z,98593.28
2022-10-30T23:49:24.853Z,98590.41
2022-10-30T23:51:57.329Z,98593.34
2022-10-30T23:54:24.945Z,98588.81
2022-10-30T23:56:55.803Z,98587.97
2022-10-30T23:59:26.611Z,98584.03
